Time;durP1;ratioP1;P1;durP2;ratioP2;P2;SDS_P1;SDS_P2;PMS_P1;PMS_P2;Temp;Humidity;BMP_temperature;BMP_pressure;BME280_temperature;BME280_humidity;BME280_pressure;Samples;Min_cycle;Max_cycle;Signal;HPM_P1;HPM_P2
2022/02/03 00:00:32;;;;;;;11.30;7.27;;;;;;;-0.09;85.43;95138.33;1786981;80;21007;-75
2022/02/03 00:03:08;;;;;;;8.77;6.40;;;;;;;-0.11;84.96;95142.61;1786773;80;21520;-74
2022/02/03 00:05:40;;;;;;;6.53;5.33;;;;;;;-0.08;85.24;95156.91;1786213;80;21026;-74
2022/02/03 00:08:15;;;;;;;18.63;10.67;;;;;;;-0.06;85.05;95152.63;1785619;80;21484;-74
2022/02/03 00:24:24;;;;;;;22.67;13.10;;;;;;;0.03;86.14;95173.95;1787629;80;20994;-74
2022/02/03 00:27:10;;;;;;;23.10;13.50;;;;;;;0.11;85.97;95178.83;1787771;80;21038;-74
2022/02/03 00:29:50;;;;;;;22.20;12.67;;;;;;;0.09;85.65;95184.41;1786953;80;21512;-74
2022/02/03 00:32:16;;;;;;;16.80;10.93;;;;;;;0.06;85.78;95189.98;1785170;80;21192;-74
2022/02/03 00:34:49;;;;;;;13.67;7.80;;;;;;;0.09;85.89;95199.11;1786146;80;21010;-74
2022/02/03 00:37:16;;;;;;;14.40;9.37;;;;;;;0.14;86.55;95202.64;1785337;80;21026;-75
2022/02/03 00:50:43;;;;;;;6.20;3.67;;;;;;;0.21;87.40;95213.13;1787703;80;20985;-74
2022/02/03 00:53:07;;;;;;;6.27;4.00;;;;;;;0.21;87.30;95211.84;1786707;80;21002;-74
2022/02/03 00:55:37;;;;;;;6.03;3.80;;;;;;;0.26;86.94;95209.75;1787824;80;21026;-74
2022/02/03 00:58:05;;;;;;;4.80;3.43;;;;;;;0.32;86.74;95217.61;1787767;80;21002;-74
2022/02/03 01:00:34;;;;;;;4.33;3.23;;;;;;;0.34;86.24;95215.91;1787707;80;21029;-74
2022/02/03 01:03:13;;;;;;;5.97;3.67;;;;;;;0.29;85.87;95215.84;1787891;80;20990;-74
2022/02/03 01:05:44;;;;;;;4.47;3.30;;;;;;;0.33;85.94;95221.97;1787670;80;21480;-74
2022/02/03 01:08:19;;;;;;;4.37;3.03;;;;;;;0.33;85.67;95220.67;1787761;80;21062;-74
2022/02/03 01:10:55;;;;;;;5.00;3.47;;;;;;;0.33;85.08;95218.07;1787725;80;21591;-74
2022/02/03 01:13:43;;;;;;;5.20;3.20;;;;;;;0.32;85.01;95222.36;1787598;80;21497;-74
2022/02/03 01:16:16;;;;;;;3.33;2.50;;;;;;;0.29;84.76;95222.33;1785784;80;21549;-74
2022/02/03 01:19:08;;;;;;;3.93;3.07;;;;;;;0.31;84.65;95231.44;1784564;80;21027;-74
2022/02/03 01:35:14;;;;;;;4.43;2.87;;;;;;;0.16;82.79;95258.02;1787669;80;21008;-74
2022/02/03 01:53:46;;;;;;;4.37;2.93;;;;;;;0.14;81.86;95277.88;1787789;80;21067;-74
2022/02/03 01:56:17;;;;;;;3.23;1.70;;;;;;;0.11;81.81;95286.91;1787519;80;21002;-74
2022/02/03 01:58:51;;;;;;;5.00;3.17;;;;;;;0.05;80.83;95291.58;1787779;80;21066;-74
2022/02/03 02:01:29;;;;;;;4.33;3.00;;;;;;;0.09;81.01;95300.27;1787165;80;21006;-74
2022/02/03 02:04:35;;;;;;;4.23;2.40;;;;;;;0.07;80.94;95298.08;1787360;80;21010;-74
2022/02/03 02:07:27;;;;;;;2.63;1.87;;;;;;;0.02;80.68;95310.09;1787674;80;21477;-74
2022/02/03 02:10:26;;;;;;;4.40;2.80;;;;;;;-0.02;80.48;95316.53;1787812;80;21045;-74
2022/02/03 02:13:40;;;;;;;5.70;2.87;;;;;;;-0.05;80.63;95325.95;1784644;80;21121;-74
2022/02/03 02:18:53;;;;;;;3.83;1.97;;;;;;;-0.08;80.41;95339.75;1778585;80;21055;-74
2022/02/03 02:38:29;;;;;;;5.20;3.40;;;;;;;-0.33;79.73;95359.59;1787726;80;21003;-74
2022/02/03 02:44:03;;;;;;;3.83;2.47;;;;;;;-0.38;79.86;95371.58;1787314;80;21053;-74
2022/02/03 02:46:41;;;;;;;3.70;2.77;;;;;;;-0.37;79.70;95371.62;1759519;80;21077;-74
2022/02/03 02:49:45;;;;;;;5.20;3.40;;;;;;;-0.38;79.87;95383.25;1787419;80;21057;-74
2022/02/03 02:52:14;;;;;;;5.07;2.77;;;;;;;-0.40;80.07;95386.22;1786571;80;21508;-76
2022/02/03 02:54:56;;;;;;;;;;;;;;;-0.42;79.89;95384.05;1790389;80;21010;-74
2022/02/03 02:57:49;;;;;;;4.30;2.50;;;;;;;-0.43;79.87;95390.92;1785887;80;20089;-74
2022/02/03 03:30:59;;;;;;;7.17;3.77;;;;;;;-0.58;79.61;95436.86;1793317;79;20974;-74
2022/02/03 03:36:09;;;;;;;5.83;3.83;;;;;;;-0.52;79.71;95445.18;1793155;79;20995;-74
2022/02/03 03:38:35;;;;;;;6.27;3.97;;;;;;;-0.51;79.50;95449.52;1792280;80;21011;-74
2022/02/03 03:41:04;;;;;;;5.37;3.50;;;;;;;-0.52;79.57;95459.02;1793315;79;21457;-73
2022/02/03 03:44:03;;;;;;;4.93;3.77;;;;;;;-0.52;79.40;95464.19;1792746;80;21106;-74
2022/02/03 03:46:34;;;;;;;7.10;3.97;;;;;;;-0.51;79.39;95466.36;1793274;80;20959;-74
2022/02/03 03:49:28;;;;;;;5.83;4.13;;;;;;;-0.48;79.27;95471.20;1793104;79;21050;-74
2022/02/03 03:52:11;;;;;;;5.20;3.83;;;;;;;-0.45;79.27;95481.63;1793335;80;21555;-73
2022/02/03 03:54:51;;;;;;;13.53;4.50;;;;;;;-0.49;79.07;95481.53;1792210;80;21516;-74
2022/02/03 04:30:07;;;;;;;10.97;6.20;;;;;;;-0.45;79.20;95519.64;1787719;80;21460;-75
2022/02/03 04:35:47;;;;;;;13.57;6.73;;;;;;;-0.47;78.97;95531.26;1787750;80;20939;-75
2022/02/03 05:03:49;;;;;;;6.47;4.10;;;;;;;-0.61;77.56;95571.95;1787536;80;21022;-75
2022/02/03 05:09:34;;;;;;;6.93;4.70;;;;;;;-0.65;77.14;95587.85;1787669;80;21015;-75
2022/02/03 05:12:37;;;;;;;8.47;5.00;;;;;;;-0.71;77.15;95598.92;1787297;80;21508;-75
2022/02/03 05:25:00;;;;;;;6.50;4.30;;;;;;;-0.93;77.34;95610.48;1787820;80;21010;-74
2022/02/03 05:45:50;;;;;;;10.27;5.53;;;;;;;-0.86;77.87;95654.23;1787698;80;21033;-75
2022/02/03 05:48:18;;;;;;;11.47;6.90;;;;;;;-0.83;77.89;95657.32;1782571;80;20999;-75
2022/02/03 05:50:42;;;;;;;11.87;6.10;;;;;;;-0.83;77.85;95654.73;1783958;80;21011;-75
2022/02/03 05:54:43;;;;;;;10.30;6.13;;;;;;;-0.82;77.83;95651.32;1785380;80;21013;-75
2022/02/03 06:14:11;;;;;;;7.97;5.13;;;;;;;-1.09;78.70;95682.98;1760447;80;21555;-81
2022/02/03 06:21:55;;;;;;;11.80;6.73;;;;;;;-1.07;78.94;95723.17;1787160;80;21013;-73
2022/02/03 06:24:34;;;;;;;9.30;5.40;;;;;;;-1.32;78.36;95720.30;1786407;80;21679;-74
2022/02/03 06:29:39;;;;;;;14.33;9.00;;;;;;;-1.12;78.98;95724.33;1761702;81;21038;-73
2022/02/03 06:32:01;;;;;;;6.23;4.10;;;;;;;-1.05;79.25;95727.11;1761182;81;21034;-75
2022/02/03 06:34:28;;;;;;;6.70;4.13;;;;;;;-1.01;79.32;95732.82;1737065;82;21021;-75
2022/02/03 06:36:55;;;;;;;6.53;4.47;;;;;;;-0.93;79.57;95737.39;1759895;81;22206;-72
2022/02/03 06:39:28;;;;;;;8.10;5.13;;;;;;;-0.79;79.70;95745.53;1761108;81;21079;-76
2022/02/03 06:41:59;;;;;;;8.53;4.95;;;;;;;-0.62;79.85;95748.58;1761535;81;20998;-77
2022/02/03 06:44:38;;;;;;;12.97;7.10;;;;;;;-0.51;79.17;95761.39;1761357;81;21007;-74
2022/02/03 06:47:03;;;;;;;9.45;6.37;;;;;;;-0.43;78.27;95756.41;1759959;81;21057;-77
2022/02/03 06:52:03;;;;;;;5.67;3.73;;;;;;;-0.34;73.83;95766.16;1761231;81;21065;-75
2022/02/03 06:54:35;;;;;;;6.90;4.70;;;;;;;-0.36;72.62;95770.42;1760449;81;21074;-75
2022/02/03 06:56:58;;;;;;;7.73;4.73;;;;;;;-0.34;73.08;95773.52;1761030;81;21042;-77
2022/02/03 06:59:28;;;;;;;9.23;5.00;;;;;;;-0.35;72.59;95777.34;1760229;81;21066;-76
2022/02/03 07:01:49;;;;;;;11.77;6.57;;;;;;;-0.32;72.83;95782.64;1761960;81;21512;-75
2022/02/03 07:04:24;;;;;;;17.43;9.83;;;;;;;-0.26;72.92;95777.59;1760887;81;21019;-75
2022/02/03 07:06:44;;;;;;;20.60;12.30;;;;;;;-0.15;72.92;95774.88;1761872;81;21578;-74
2022/02/03 07:09:12;;;;;;;14.03;8.93;;;;;;;-0.03;73.09;95776.45;1768189;81;21129;-79
2022/02/03 07:11:40;;;;;;;11.23;6.37;;;;;;;-0.03;72.26;95774.28;1768653;81;21011;-75
2022/02/03 07:14:09;;;;;;;7.23;4.40;;;;;;;0.01;71.74;95772.66;1768740;81;21055;-77
2022/02/03 07:16:44;;;;;;;15.83;9.20;;;;;;;0.05;71.71;95772.78;1769010;81;21469;-76
2022/02/03 07:19:04;;;;;;;13.47;8.23;;;;;;;0.07;71.15;95776.69;1769149;81;22008;-75
2022/02/03 07:21:31;;;;;;;13.33;8.43;;;;;;;0.08;71.56;95776.74;1769030;81;20960;-77
2022/02/03 07:23:57;;;;;;;12.60;7.50;;;;;;;0.16;71.72;95784.28;1768166;81;21524;-76
2022/02/03 07:26:23;;;;;;;16.20;10.17;;;;;;;0.19;71.20;95775.27;1768503;81;21018;-74
2022/02/03 07:28:50;;;;;;;15.10;8.90;;;;;;;0.28;71.28;95781.12;1768804;81;21130;-74
2022/02/03 07:31:16;;;;;;;12.23;7.40;;;;;;;0.33;70.60;95782.11;1767918;81;21555;-75
2022/02/03 07:33:43;;;;;;;16.77;9.87;;;;;;;0.36;70.77;95786.06;1767605;81;21131;-75
2022/02/03 07:36:10;;;;;;;21.27;10.93;;;;;;;0.44;70.39;95796.63;1767520;81;21615;-76
2022/02/03 07:38:41;;;;;;;12.70;7.83;;;;;;;0.51;69.95;95796.36;1768275;81;21505;-74
2022/02/03 07:41:06;;;;;;;12.00;7.00;;;;;;;0.54;69.71;95800.31;1768151;81;20983;-74
2022/02/03 07:43:32;;;;;;;15.37;9.60;;;;;;;0.47;68.71;95795.81;1768286;81;21146;-76
2022/02/03 07:45:59;;;;;;;11.37;7.83;;;;;;;0.53;69.19;95799.45;1768360;81;21029;-78
2022/02/03 07:48:25;;;;;;;24.90;14.03;;;;;;;0.59;69.10;95800.00;1768388;81;21121;-74
2022/02/03 07:50:52;;;;;;;17.07;10.77;;;;;;;0.66;69.03;95804.50;1767389;81;20967;-77
2022/02/03 07:53:18;;;;;;;15.13;8.33;;;;;;;0.67;69.01;95808.84;1768342;81;21058;-78
2022/02/03 07:55:47;;;;;;;16.63;9.73;;;;;;;0.66;68.25;95822.67;1769086;81;20964;-71
2022/02/03 07:58:13;;;;;;;12.27;7.47;;;;;;;0.64;68.37;95812.67;1769060;81;21026;-73
2022/02/03 08:00:40;;;;;;;11.17;7.33;;;;;;;0.70;68.50;95808.89;1767949;81;21439;-76
2022/02/03 08:03:11;;;;;;;8.03;4.20;;;;;;;0.67;68.00;95814.03;1767748;81;21053;-75
2022/02/03 08:05:36;;;;;;;11.80;6.33;;;;;;;0.52;67.30;95813.68;1768601;81;21485;-76
2022/02/03 08:08:10;;;;;;;8.53;5.73;;;;;;;0.54;67.80;95811.58;1770935;81;21078;-77
2022/02/03 08:10:45;;;;;;;8.67;5.70;;;;;;;0.60;67.57;95811.70;1774253;81;21011;-73
2022/02/03 08:13:14;;;;;;;9.40;5.60;;;;;;;0.61;67.53;95812.17;1773541;81;21493;-74
2022/02/03 08:15:40;;;;;;;10.60;6.97;;;;;;;0.71;67.37;95812.40;1774437;81;21042;-75
2022/02/03 08:18:10;;;;;;;10.20;6.43;;;;;;;0.83;67.99;95809.66;1774527;81;21149;-75
2022/02/03 08:20:34;;;;;;;9.40;5.90;;;;;;;0.88;66.94;95816.22;1773889;81;21073;-75
2022/02/03 08:26:46;;;;;;;8.40;4.93;;;;;;;0.96;66.29;95831.58;1773244;81;20994;-76
2022/02/03 08:28:41;;;;;;;6.70;4.27;;;;;;;0.89;65.91;95830.11;1755056;81;21098;-77
2022/02/03 08:31:01;;;;;;;6.00;3.87;;;;;;;0.83;65.36;95833.42;1773791;81;21083;-76
2022/02/03 08:33:27;;;;;;;7.20;4.07;;;;;;;0.72;65.35;95835.79;1773726;81;21532;-74
2022/02/03 08:35:53;;;;;;;9.50;5.07;;;;;;;0.62;65.52;95848.97;1774183;81;21050;-76
2022/02/03 08:38:28;;;;;;;8.60;4.93;;;;;;;0.62;65.76;95857.19;1773359;80;21042;-75
2022/02/03 08:43:15;;;;;;;8.70;5.13;;;;;;;0.22;65.81;95857.50;1774641;80;21003;-74
2022/02/03 08:45:43;;;;;;;11.00;5.90;;;;;;;0.06;66.36;95865.33;1774610;81;21046;-75
2022/02/03 08:48:13;;;;;;;8.80;4.60;;;;;;;-0.10;66.89;95861.85;1773330;81;21085;-74
2022/02/03 08:50:40;;;;;;;7.67;5.30;;;;;;;0.20;67.17;95856.19;1773409;81;21058;-73
2022/02/03 08:53:14;;;;;;;7.13;4.83;;;;;;;0.70;66.95;95859.97;1774347;80;21101;-75
2022/02/03 08:55:49;;;;;;;10.73;7.33;;;;;;;1.07;66.14;95850.00;1774720;81;21501;-75
2022/02/03 09:34:32;;;;;;;6.80;4.10;;;;;;;3.14;55.38;95882.41;1753933;82;21021;-75
2022/02/03 09:36:02;;;;;;;7.30;4.60;;;;;;;3.06;55.67;95871.00;1753107;81;21119;-73
2022/02/03 09:59:47;;;;;;;7.30;5.17;;;;;;;3.96;53.59;95880.89;1754720;81;21017;-72
2022/02/03 10:02:12;;;;;;;6.47;4.20;;;;;;;4.08;53.47;95879.28;1753796;81;21037;-76
2022/02/03 10:07:21;;;;;;;8.70;5.50;;;;;;;4.21;52.90;95870.25;1753959;81;21045;-74
2022/02/03 10:09:52;;;;;;;6.53;4.67;;;;;;;4.25;52.68;95869.00;1754393;82;21350;-74
2022/02/03 10:12:28;;;;;;;8.40;4.70;;;;;;;4.22;52.16;95866.36;1755523;82;21535;-73
2022/02/03 10:14:56;;;;;;;7.67;4.90;;;;;;;4.16;51.08;95873.24;1755236;81;21030;-74
2022/02/03 10:17:36;;;;;;;7.53;4.13;;;;;;;4.22;51.88;95868.97;1755907;81;21008;-74
2022/02/03 10:20:09;;;;;;;8.10;5.43;;;;;;;4.27;51.01;95867.28;1755751;82;21518;-74
2022/02/03 10:22:56;;;;;;;6.35;4.62;;;;;;;4.49;51.01;95863.59;1755133;81;20978;-75
2022/02/03 10:25:28;;;;;;;6.47;4.83;;;;;;;4.83;49.46;95857.33;1755445;81;21057;-74
2022/02/03 10:28:04;;;;;;;5.80;4.10;;;;;;;5.15;48.99;95853.20;1755437;82;21534;-74
2022/02/03 10:30:42;;;;;;;7.83;5.50;;;;;;;5.51;46.86;95846.42;1755377;81;21044;-73
2022/02/03 10:33:05;;;;;;;5.73;4.23;;;;;;;5.85;45.95;95850.52;1755526;81;21582;-74
2022/02/03 10:35:40;;;;;;;5.97;3.73;;;;;;;6.16;43.82;95843.65;1755755;82;20993;-74
2022/02/03 11:02:35;;;;;;;4.67;3.40;;;;;;;8.13;38.90;95873.62;1755605;81;21065;-74
2022/02/03 11:07:26;;;;;;;5.25;3.77;;;;;;;6.96;38.15;95883.53;1754873;81;21049;-74
2022/02/03 11:10:03;;;;;;;4.97;3.67;;;;;;;7.43;38.27;95877.34;1754874;82;21005;-74
2022/02/03 11:12:28;;;;;;;2.57;2.30;;;;;;;7.37;37.24;95881.73;1754614;81;21607;-73
2022/02/03 11:14:54;;;;;;;3.27;2.30;;;;;;;7.43;38.39;95879.97;1755111;82;21041;-73
2022/02/03 11:17:21;;;;;;;2.93;2.30;;;;;;;7.09;37.55;95877.39;1755179;82;21021;-74
2022/02/03 11:19:52;;;;;;;3.40;2.53;;;;;;;6.60;38.62;95876.05;1755381;82;21006;-74
2022/02/03 11:22:30;;;;;;;4.13;2.80;;;;;;;6.69;38.15;95873.45;1755810;82;21543;-73
2022/02/03 11:25:03;;;;;;;3.17;2.47;;;;;;;6.18;39.63;95873.36;1755080;81;21001;-74
2022/02/03 11:27:32;;;;;;;3.57;2.90;;;;;;;5.58;39.22;95883.98;1756077;81;21100;-74
2022/02/03 11:31:16;;;;;;;5.20;3.50;;;;;;;5.41;41.24;95890.42;1756235;81;21005;-75
2022/02/03 11:33:08;;;;;;;3.80;3.13;;;;;;;5.05;41.17;95893.23;1739983;82;21053;-73
2022/02/03 11:38:36;;;;;;;2.60;2.12;;;;;;;4.49;42.72;95894.50;1755935;82;21492;-74
2022/02/03 11:41:21;;;;;;;16.07;7.93;;;;;;;4.32;42.91;95886.92;1756003;81;21507;-74
2022/02/03 11:46:16;;;;;;;3.27;2.07;;;;;;;4.24;43.05;95898.60;1737270;83;21022;-74
2022/02/03 11:59:48;;;;;;;4.13;3.00;;;;;;;3.42;42.29;95909.75;1755917;82;21039;-74
2022/02/03 12:02:13;;;;;;;4.33;2.70;;;;;;;3.36;43.73;95914.90;1750263;82;21038;-74
2022/02/03 12:23:59;;;;;;;3.63;2.60;;;;;;;8.15;37.13;95880.62;1755748;82;21014;-74
2022/02/03 12:28:57;;;;;;;2.27;2.08;;;;;;;9.00;34.59;95880.14;1755843;82;21013;-73
2022/02/03 12:31:53;;;;;;;3.17;1.67;;;;;;;9.71;32.62;95877.72;1755915;82;21025;-73
2022/02/03 12:37:08;;;;;;;2.40;1.90;;;;;;;9.11;30.96;95899.34;1756008;82;21447;-73
2022/02/03 12:39:49;;;;;;;3.22;1.77;;;;;;;7.50;32.09;95897.46;1755616;82;21034;-74
2022/02/03 12:42:33;;;;;;;2.42;2.22;;;;;;;6.32;34.67;95910.06;1755497;81;21002;-74
2022/02/03 12:45:00;;;;;;;2.10;1.73;;;;;;;6.14;37.39;95910.88;1755647;82;21014;-74
2022/02/03 12:47:19;;;;;;;3.27;1.97;;;;;;;5.59;36.58;95920.66;1755923;81;21477;-74
2022/02/03 12:49:52;;;;;;;2.30;1.90;;;;;;;4.78;38.77;95918.72;1755926;81;21117;-74
2022/02/03 12:52:26;;;;;;;1.97;1.63;;;;;;;4.20;39.29;95925.97;1755919;82;21009;-74
2022/02/03 12:54:52;;;;;;;;;;;;;;;3.74;40.59;95937.16;1758396;82;21563;-74
2022/02/03 12:57:34;;;;;;;4.67;3.80;;;;;;;3.47;41.64;95942.00;1755987;82;20146;-74
2022/02/03 13:00:19;;;;;;;6.47;4.03;;;;;;;3.21;41.98;95942.92;1756656;81;21021;-75
2022/02/03 13:02:59;;;;;;;3.17;2.23;;;;;;;3.04;42.90;95955.69;1768464;81;21030;-74
2022/02/03 13:05:30;;;;;;;2.77;2.20;;;;;;;2.71;43.61;95957.31;1768581;80;21021;-74
2022/02/03 13:07:58;;;;;;;3.03;2.43;;;;;;;2.67;43.47;95953.31;1769529;80;21452;-74
2022/02/03 13:10:31;;;;;;;4.60;2.70;;;;;;;2.55;45.16;95969.19;1831881;78;21518;-73
2022/02/03 13:13:51;;;;;;;6.23;3.97;;;;;;;2.45;45.49;95966.40;1832249;78;21475;-74
2022/02/03 13:16:11;;;;;;;4.57;3.13;;;;;;;2.42;45.67;95965.92;1761646;81;21047;-73
2022/02/03 13:18:46;;;;;;;6.00;2.73;;;;;;;2.28;46.51;95964.33;1762000;81;21000;-73
2022/02/03 13:21:36;;;;;;;18.27;9.23;;;;;;;2.20;46.63;95974.16;1765658;81;21445;-73
2022/02/03 13:23:52;;;;;;;12.60;7.13;;;;;;;2.17;47.17;95968.47;1761930;81;21083;-73
2022/02/03 13:26:22;;;;;;;10.33;6.70;;;;;;;2.71;46.85;95968.16;1832018;78;21412;-73
2022/02/03 13:29:02;;;;;;;9.73;6.80;;;;;;;2.93;45.78;95970.72;1762687;81;21015;-73
2022/02/03 13:31:51;;;;;;;5.57;4.20;;;;;;;2.93;46.02;95971.59;1765999;81;21674;-74
2022/02/03 13:34:33;;;;;;;5.37;3.93;;;;;;;3.55;45.25;95972.55;1831413;78;20997;-74
2022/02/03 13:37:11;;;;;;;7.50;3.70;;;;;;;3.60;44.80;95970.88;1761567;81;21014;-73
2022/02/03 13:39:35;;;;;;;15.50;9.67;;;;;;;3.24;45.46;95967.74;1763780;81;21488;-74
2022/02/03 13:42:11;;;;;;;11.67;6.87;;;;;;;3.15;46.29;95971.93;1764328;81;21026;-74
2022/02/03 13:44:38;;;;;;;15.73;8.63;;;;;;;2.71;46.81;95974.24;1832316;78;20966;-74
2022/02/03 13:47:23;;;;;;;14.03;7.97;;;;;;;2.89;47.50;95977.59;1763171;81;21082;-74
2022/02/03 13:50:25;;;;;;;11.00;7.00;;;;;;;3.52;45.82;95976.42;1766385;81;21503;-73
2022/02/03 13:53:03;;;;;;;10.90;5.07;;;;;;;4.21;44.62;95966.48;1765522;81;20983;-74
2022/02/03 14:21:38;;;;;;;5.97;4.50;;;;;;;1.94;49.90;96015.73;1718471;83;21497;-73
2022/02/03 14:29:25;;;;;;;4.53;2.93;;;;;;;1.40;50.95;96020.56;1763921;80;21066;-73
2022/02/03 14:31:56;;;;;;;3.17;2.40;;;;;;;1.21;51.61;96023.13;1763406;80;21031;-74
2022/02/03 14:34:23;;;;;;;4.80;3.13;;;;;;;1.04;52.32;96027.94;1759601;81;21034;-74
2022/02/03 14:36:48;;;;;;;3.57;2.40;;;;;;;0.96;52.35;96025.14;1759847;81;21014;-73
2022/02/03 14:39:17;;;;;;;6.37;3.97;;;;;;;0.85;52.73;96031.77;1760245;81;21063;-74
2022/02/03 14:41:49;;;;;;;3.63;2.50;;;;;;;0.75;52.71;96025.45;1760136;81;21007;-74
2022/02/03 14:44:15;;;;;;;5.17;2.70;;;;;;;0.62;53.24;96041.56;1759720;80;21023;-74
2022/02/03 14:46:43;;;;;;;3.60;2.27;;;;;;;0.56;54.60;96044.87;1760485;81;20979;-74
2022/02/03 14:49:10;;;;;;;5.83;3.53;;;;;;;0.46;55.03;96047.19;1760342;81;20999;-74
2022/02/03 14:58:02;;;;;;;5.23;3.27;;;;;;;0.29;54.79;96055.38;1760205;81;21033;-74
2022/02/03 14:59:23;;;;;;;3.27;2.52;;;;;;;0.32;54.83;96058.47;1757377;81;21496;-74
2022/02/03 15:01:49;;;;;;;4.23;2.60;;;;;;;0.27;55.22;96060.93;1760532;80;21046;-73
2022/02/03 15:04:25;;;;;;;4.27;2.37;;;;;;;0.19;54.96;96066.33;1760739;81;20995;-73
2022/02/03 15:06:55;;;;;;;5.80;3.37;;;;;;;0.15;54.81;96055.39;1759620;81;21003;-75
2022/02/03 15:09:33;;;;;;;4.80;3.00;;;;;;;0.11;55.16;96051.84;1764884;81;21595;-75
2022/02/03 15:14:13;;;;;;;7.63;4.73;;;;;;;-0.07;55.56;96056.08;1774122;80;21038;-74
2022/02/03 15:16:40;;;;;;;6.20;3.93;;;;;;;-0.11;55.64;96060.70;1774016;80;21591;-74
2022/02/03 15:19:07;;;;;;;6.43;3.73;;;;;;;-0.16;56.54;96059.68;1774379;81;21449;-74
2022/02/03 15:21:33;;;;;;;4.07;2.57;;;;;;;-0.23;56.33;96061.23;1774347;80;20983;-74
2022/02/03 15:24:01;;;;;;;6.60;3.77;;;;;;;-0.32;56.11;96071.73;1774119;80;20998;-74
2022/02/03 15:26:28;;;;;;;2.77;2.00;;;;;;;-0.34;56.74;96074.27;1774145;80;21046;-74
2022/02/03 15:28:55;;;;;;;4.10;2.17;;;;;;;-0.33;57.09;96077.73;1774285;80;21014;-73
2022/02/03 15:31:27;;;;;;;3.80;2.40;;;;;;;-0.41;56.92;96081.80;1773860;80;21552;-74
2022/02/03 15:33:58;;;;;;;3.87;2.30;;;;;;;-0.46;57.34;96080.36;1773897;80;21002;-74
2022/02/03 15:36:19;;;;;;;3.10;2.43;;;;;;;-0.47;57.51;96085.97;1772624;80;21010;-74
2022/02/03 15:38:48;;;;;;;3.00;2.07;;;;;;;-0.54;58.05;96090.48;1774120;80;20978;-74
2022/02/03 15:41:22;;;;;;;4.50;2.57;;;;;;;-0.57;58.24;96089.52;1774030;80;21053;-74
2022/02/03 15:43:43;;;;;;;5.47;2.13;;;;;;;-0.58;58.60;96100.70;1773433;80;21500;-75
2022/02/03 15:46:12;;;;;;;5.73;3.40;;;;;;;-0.59;58.51;96095.06;1774088;80;21009;-74
2022/02/03 15:48:50;;;;;;;3.50;2.10;;;;;;;-0.70;58.99;96093.44;1774430;81;21003;-74
2022/02/03 15:51:25;;;;;;;4.03;2.60;;;;;;;-0.78;59.73;96091.89;1773230;80;21536;-74
2022/02/03 16:00:19;;;;;;;3.30;2.10;;;;;;;-0.87;59.96;96100.64;1774017;80;21094;-74
2022/02/03 16:13:10;;;;;;;3.77;2.30;;;;;;;-1.06;60.13;96108.19;1774224;80;21003;-74
2022/02/03 16:17:46;;;;;;;2.93;2.03;;;;;;;-1.57;62.47;96128.41;1760417;81;21153;-74
2022/02/03 16:20:18;;;;;;;3.57;2.30;;;;;;;-1.61;62.61;96121.80;1760012;81;21018;-74
2022/02/03 16:23:10;;;;;;;3.73;2.33;;;;;;;-1.75;62.66;96127.75;1760100;81;21066;-74
2022/02/03 16:50:30;;;;;;;5.37;3.07;;;;;;;-2.96;67.92;96134.19;1760559;80;21501;-74
2022/02/03 16:52:51;;;;;;;6.30;3.63;;;;;;;-2.93;66.91;96134.31;1759611;81;21107;-74
2022/02/03 16:55:22;;;;;;;6.40;3.10;;;;;;;-3.02;68.03;96135.24;1759978;81;21563;-74
2022/02/03 16:57:49;;;;;;;2.93;1.87;;;;;;;-3.09;67.34;96137.09;1760222;81;21557;-74
2022/02/03 17:00:18;;;;;;;2.13;1.77;;;;;;;-3.13;67.45;96137.34;1760330;81;21003;-74
2022/02/03 17:02:45;;;;;;;2.20;1.87;;;;;;;-3.10;67.96;96134.92;1760294;81;21508;-74
2022/02/03 17:05:13;;;;;;;2.53;2.13;;;;;;;-3.13;67.41;96146.80;1760351;81;21025;-74
2022/02/03 17:07:39;;;;;;;4.10;1.97;;;;;;;-3.28;67.70;96142.77;1760292;81;21074;-74
2022/02/03 17:10:07;;;;;;;2.57;1.70;;;;;;;-3.37;68.37;96138.91;1760196;81;21505;-75
2022/02/03 17:12:34;;;;;;;3.00;1.70;;;;;;;-3.34;67.92;96145.06;1760124;81;21062;-74
2022/02/03 17:15:00;;;;;;;3.03;2.00;;;;;;;-3.23;67.60;96152.38;1760540;80;21011;-74
2022/02/03 17:17:27;;;;;;;2.93;2.00;;;;;;;-3.19;67.37;96142.27;1760447;80;21062;-74
2022/02/03 17:19:54;;;;;;;4.20;2.60;;;;;;;-3.26;66.71;96143.69;1760558;80;21062;-74
2022/02/03 17:22:28;;;;;;;6.07;3.47;;;;;;;-3.41;67.47;96134.41;1760288;80;21011;-75
2022/02/03 17:25:13;;;;;;;3.47;2.10;;;;;;;-3.45;67.45;96137.28;1760084;81;21054;-74
2022/02/03 17:27:29;;;;;;;1.80;1.27;;;;;;;-3.44;67.22;96136.87;1757268;81;21051;-74
2022/02/03 18:08:30;;;;;;;5.07;2.33;;;;;;;-4.62;68.77;96119.06;1760532;80;21003;-75
2022/02/03 18:10:45;;;;;;;6.87;3.27;;;;;;;-4.78;70.26;96116.58;1758220;81;21066;-76
2022/02/03 18:19:31;;;;;;;10.03;5.67;;;;;;;-4.85;71.06;96102.92;1760315;80;21004;-75
2022/02/03 18:45:55;;;;;;;4.97;3.30;;;;;;;-5.40;71.41;96115.23;1760236;81;21007;-74
2022/02/03 18:50:57;;;;;;;5.20;3.30;;;;;;;-5.36;71.40;96098.28;1760359;81;21548;-74
2022/02/03 18:53:29;;;;;;;8.90;3.70;;;;;;;-5.53;71.28;96098.30;1759590;81;21031;-74
2022/02/03 18:58:31;;;;;;;7.50;3.07;;;;;;;-5.57;71.63;96103.20;1760571;81;20994;-74
2022/02/03 19:14:48;;;;;;;8.70;4.10;;;;;;;-5.70;73.00;96101.28;1774276;80;20994;-74
2022/02/03 19:28:33;;;;;;;4.53;2.80;;;;;;;-5.75;72.65;96102.73;1774203;80;21034;-74
2022/02/03 20:06:18;;;;;;;18.70;8.80;;;;;;;-6.50;73.22;96103.96;1758190;80;20967;-74
2022/02/03 20:08:43;;;;;;;32.97;13.93;;;;;;;-6.76;75.05;96102.11;1772189;80;21043;-74
2022/02/03 20:11:00;;;;;;;8.03;4.97;;;;;;;-6.75;74.57;96097.48;1772591;80;21572;-74
2022/02/03 20:13:27;;;;;;;10.33;5.27;;;;;;;-6.68;74.45;96097.80;1774184;80;21054;-74
2022/02/03 20:15:54;;;;;;;8.13;4.83;;;;;;;-6.62;74.78;96095.59;1774184;80;21508;-73
2022/02/03 20:18:21;;;;;;;3.90;2.30;;;;;;;-6.57;75.07;96098.87;1774149;80;21041;-74
2022/02/03 20:20:48;;;;;;;9.00;4.20;;;;;;;-6.67;74.17;96094.45;1774222;81;21002;-74
2022/02/03 20:23:18;;;;;;;10.33;4.30;;;;;;;-6.79;74.07;96101.06;1774225;80;21030;-73
2022/02/03 20:25:56;;;;;;;10.87;4.80;;;;;;;-6.80;74.44;96097.63;1774119;80;21038;-74
2022/02/03 20:28:19;;;;;;;11.97;5.90;;;;;;;-6.75;74.73;96094.03;1773670;80;20991;-73
2022/02/03 20:30:46;;;;;;;25.17;12.00;;;;;;;-6.74;74.82;96104.77;1774115;80;21473;-73
2022/02/03 20:33:12;;;;;;;28.20;12.27;;;;;;;-6.81;74.19;96093.27;1774084;80;21022;-73
2022/02/03 20:35:40;;;;;;;14.17;6.97;;;;;;;-6.92;74.96;96090.93;1774223;80;21006;-73
2022/02/03 20:38:07;;;;;;;39.37;21.47;;;;;;;-7.08;75.27;96095.20;1774228;80;21535;-73
2022/02/03 20:40:34;;;;;;;41.60;20.50;;;;;;;-7.09;75.26;96091.26;1774044;80;21010;-73
2022/02/03 20:43:02;;;;;;;15.53;7.40;;;;;;;-7.15;74.70;96084.52;1774038;80;20992;-74
2022/02/03 20:45:29;;;;;;;13.17;6.10;;;;;;;-7.06;75.16;96090.14;1774216;80;20987;-73
2022/02/03 20:47:55;;;;;;;7.03;4.10;;;;;;;-7.14;74.81;96087.15;1774180;80;20974;-73
2022/02/03 20:50:21;;;;;;;9.17;4.50;;;;;;;-7.25;75.55;96086.55;1774238;80;20983;-73
2022/02/03 20:52:48;;;;;;;67.93;27.40;;;;;;;-7.19;75.50;96079.19;1754760;81;20978;-74
2022/02/03 20:55:16;;;;;;;37.03;18.30;;;;;;;-7.16;76.12;96078.48;1774356;81;20991;-73
2022/02/03 20:57:43;;;;;;;35.93;16.73;;;;;;;-7.04;75.77;96075.73;1774190;81;20990;-74
2022/02/03 21:00:24;;;;;;;7.97;4.50;;;;;;;-7.10;74.95;96075.40;1774200;80;21018;-73
2022/02/03 21:03:02;;;;;;;19.33;8.20;;;;;;;-7.06;75.11;96072.19;1774362;81;21003;-73
2022/02/03 21:05:21;;;;;;;48.40;25.47;;;;;;;-7.03;75.71;96069.78;1772383;80;21014;-73
2022/02/03 21:07:50;;;;;;;40.83;20.00;;;;;;;-7.13;75.19;96068.42;1774106;80;20962;-73
2022/02/03 21:10:25;;;;;;;37.37;19.57;;;;;;;-7.17;75.26;96062.63;1774177;80;20987;-73
2022/02/03 21:12:52;;;;;;;39.27;20.53;;;;;;;-7.16;75.72;96066.06;1774214;80;20975;-73
2022/02/03 21:15:25;;;;;;;38.53;20.63;;;;;;;-7.26;75.23;96068.09;1774075;80;21128;-73
2022/02/03 21:17:48;;;;;;;45.10;21.67;;;;;;;-7.35;75.77;96074.00;1773275;80;20967;-73
2022/02/03 21:20:17;;;;;;;38.93;17.53;;;;;;;-7.43;74.63;96079.10;1774352;80;21050;-73
2022/02/03 21:22:43;;;;;;;11.40;6.83;;;;;;;-7.58;75.43;96074.34;1774208;80;20991;-73
2022/02/03 21:25:42;;;;;;;45.93;19.87;;;;;;;-7.50;76.14;96075.69;1774343;80;21010;-73
2022/02/03 21:28:11;;;;;;;104.80;45.58;;;;;;;-7.50;75.60;96074.01;1772888;80;21045;-73
2022/02/03 21:30:37;;;;;;;125.42;53.13;;;;;;;-7.62;75.50;96079.30;1774325;80;21074;-73
2022/02/03 21:33:06;;;;;;;114.30;51.00;;;;;;;-7.65;76.13;96073.13;1774213;81;20998;-73
2022/02/03 21:35:33;;;;;;;173.10;64.93;;;;;;;-7.65;75.91;96069.28;1774267;80;21007;-73